createdAt,value
2017-11-25T00:00:21.540Z,6.06
2017-11-25T00:06:25.822Z,6.04
2017-11-25T00:12:29.323Z,5.96
2017-11-25T00:18:33.621Z,5.85
2017-11-25T00:24:38.293Z,5.84
2017-11-25T00:30:41.785Z,5.77
2017-11-25T00:36:45.280Z,5.69
2017-11-25T00:42:48.767Z,5.68
2017-11-25T00:48:52.261Z,5.61
2017-11-25T00:54:55.776Z,5.53
2017-11-25T01:00:59.282Z,5.52
2017-11-25T01:07:02.809Z,5.47
2017-11-25T01:13:06.369Z,5.51
2017-11-25T01:19:09.890Z,5.50
2017-11-25T01:25:13.649Z,5.56
2017-11-25T01:31:17.140Z,5.67
2017-11-25T01:37:20.655Z,5.75
2017-11-25T01:43:24.922Z,5.80
2017-11-25T01:49:28.431Z,5.88
2017-11-25T01:55:33.418Z,5.86
2017-11-25T02:01:36.921Z,5.87
2017-11-25T02:07:40.418Z,5.84
2017-11-25T02:13:43.932Z,5.84
2017-11-25T02:19:48.162Z,5.88
2017-11-25T02:25:51.682Z,5.94
2017-11-25T02:31:55.171Z,5.91
2017-11-25T02:37:58.652Z,5.93
2017-11-25T02:44:02.153Z,5.91
2017-11-25T02:50:06.389Z,5.86
2017-11-25T02:56:09.875Z,5.87
2017-11-25T03:02:13.393Z,5.81
2017-11-25T03:08:16.903Z,5.88
2017-11-25T03:14:21.238Z,5.85
2017-11-25T03:20:24.739Z,5.86
2017-11-25T03:26:28.248Z,5.94
2017-11-25T03:32:31.829Z,5.94
2017-11-25T03:38:35.339Z,5.99
2017-11-25T03:44:38.847Z,6.01
2017-11-25T03:50:43.133Z,6.04
2017-11-25T03:56:46.651Z,6.02
2017-11-25T04:02:50.144Z,6.08
2017-11-25T04:08:53.627Z,6.04
2017-11-25T04:14:57.144Z,6.02
2017-11-25T04:21:00.759Z,6.03
2017-11-25T04:27:04.245Z,5.95
2017-11-25T04:33:07.749Z,6.00
2017-11-25T04:39:12.007Z,5.96
2017-11-25T04:45:15.508Z,6.01
2017-11-25T04:51:19.042Z,6.01
2017-11-25T04:57:22.582Z,5.94
2017-11-25T05:03:26.090Z,5.97
2017-11-25T05:09:29.573Z,5.94
2017-11-25T05:15:33.105Z,5.88
2017-11-25T05:21:36.614Z,6.00
2017-11-25T05:27:40.198Z,5.95
2017-11-25T05:33:43.693Z,6.00
2017-11-25T05:39:47.951Z,6.10
2017-11-25T05:45:51.473Z,6.14
2017-11-25T05:51:54.958Z,6.06
2017-11-25T05:57:58.468Z,6.06
2017-11-25T06:04:01.991Z,6.06
2017-11-25T06:10:07.036Z,6.06
2017-11-25T06:16:10.564Z,6.11
2017-11-25T06:22:14.077Z,6.06
2017-11-25T06:28:17.564Z,6.06
2017-11-25T06:34:21.077Z,6.06
2017-11-25T06:40:24.568Z,6.04
2017-11-25T06:46:28.062Z,5.98
2017-11-25T06:52:31.619Z,5.96
2017-11-25T06:58:35.115Z,5.95
2017-11-25T07:04:38.624Z,5.97
2017-11-25T07:10:42.923Z,5.94
2017-11-25T07:16:46.433Z,5.87
2017-11-25T07:22:49.934Z,5.85
2017-11-25T07:28:53.446Z,5.82
2017-11-25T07:34:56.944Z,5.88
2017-11-25T07:41:00.447Z,5.88
2017-11-25T07:47:04.711Z,5.87
2017-11-25T07:53:08.206Z,5.84
2017-11-25T07:59:11.736Z,5.59
2017-11-25T08:05:15.991Z,5.47
2017-11-25T08:11:19.497Z,5.26
2017-11-25T08:17:23.000Z,5.23
2017-11-25T08:23:27.299Z,5.08
2017-11-25T08:29:31.567Z,4.87
2017-11-25T08:35:35.077Z,4.76
2017-11-25T08:41:39.353Z,4.57
2017-11-25T08:47:42.851Z,4.62
2017-11-25T08:53:47.103Z,4.39
2017-11-25T08:59:50.605Z,4.26
2017-11-25T09:05:54.144Z,4.16
2017-11-25T09:11:58.449Z,4.06
2017-11-25T09:18:03.586Z,4.05
2017-11-25T09:24:07.096Z,4.01
2017-11-25T09:30:10.608Z,4.06
2017-11-25T09:36:14.213Z,4.10
2017-11-25T09:42:17.713Z,4.15
2017-11-25T09:48:21.969Z,4.23
2017-11-25T09:54:25.469Z,4.17
2017-11-25T10:00:28.985Z,4.24
2017-11-25T10:06:33.250Z,4.30
2017-11-25T10:12:36.751Z,4.33
2017-11-25T10:18:40.240Z,4.26
2017-11-25T10:24:43.742Z,4.29
2017-11-25T10:30:48.000Z,4.37
2017-11-25T10:36:51.497Z,4.30
2017-11-25T10:42:55.012Z,4.39
2017-11-25T10:48:59.265Z,4.27
2017-11-25T10:55:03.913Z,4.36
2017-11-25T11:01:07.405Z,4.43
2017-11-25T11:07:11.696Z,4.48
2017-11-25T11:13:15.191Z,4.59
2017-11-25T11:19:19.495Z,4.65
2017-11-25T11:25:23.773Z,4.51
2017-11-25T11:31:27.305Z,4.61
2017-11-25T11:37:30.855Z,4.47
2017-11-25T11:43:34.628Z,4.29
2017-11-25T11:49:38.196Z,4.47
2017-11-25T11:55:41.709Z,4.58
2017-11-25T12:01:45.206Z,4.72
2017-11-25T12:07:48.741Z,4.76
2017-11-25T12:13:52.225Z,4.69
2017-11-25T12:19:55.709Z,4.69
2017-11-25T12:25:59.240Z,4.79
2017-11-25T12:32:02.832Z,4.74
2017-11-25T12:38:06.320Z,4.70
2017-11-25T12:44:10.649Z,4.77
2017-11-25T12:50:14.149Z,4.63
2017-11-25T12:56:17.625Z,4.65
2017-11-25T13:02:21.129Z,4.74
2017-11-25T13:08:24.615Z,4.74
2017-11-25T13:14:28.105Z,4.82
2017-11-25T13:20:31.611Z,4.86
2017-11-25T13:26:35.154Z,4.84
2017-11-25T13:32:38.669Z,4.86
2017-11-25T13:38:42.155Z,4.76
2017-11-25T13:44:45.664Z,4.74
2017-11-25T13:50:49.969Z,4.76
2017-11-25T13:56:54.248Z,4.81
2017-11-25T14:02:57.744Z,4.77
2017-11-25T14:09:01.269Z,4.80
2017-11-25T14:15:04.781Z,4.85
2017-11-25T14:21:08.276Z,4.73
2017-11-25T14:27:11.768Z,4.63
2017-11-25T14:33:15.295Z,4.54
2017-11-25T14:39:19.550Z,4.41
2017-11-25T14:45:23.024Z,4.36
2017-11-25T14:51:26.574Z,4.30
2017-11-25T14:57:30.144Z,4.25
2017-11-25T15:03:34.555Z,4.25
2017-11-25T15:09:38.812Z,4.22
2017-11-25T15:15:42.309Z,4.21
2017-11-25T15:21:45.807Z,4.16
2017-11-25T15:27:50.065Z,4.14
2017-11-25T15:33:53.535Z,4.16
2017-11-25T15:39:57.028Z,4.14
2017-11-25T15:46:00.656Z,4.11
2017-11-25T15:52:04.165Z,4.13
2017-11-25T15:58:08.437Z,4.09
2017-11-25T16:04:11.914Z,4.10
2017-11-25T16:10:15.396Z,4.06
2017-11-25T16:16:18.893Z,3.99
2017-11-25T16:22:22.395Z,3.87
2017-11-25T16:28:26.648Z,3.92
2017-11-25T16:34:30.148Z,3.87
2017-11-25T16:40:33.666Z,3.81
2017-11-25T16:46:37.179Z,3.73
2017-11-25T16:52:40.699Z,3.76
2017-11-25T16:58:44.201Z,3.68
2017-11-25T17:04:47.688Z,3.53
2017-11-25T17:10:51.959Z,3.42
2017-11-25T17:16:55.448Z,3.28
2017-11-25T17:23:00.014Z,3.15
2017-11-25T17:29:04.321Z,3.01
2017-11-25T17:35:08.607Z,2.86
2017-11-25T17:41:12.103Z,2.84
2017-11-25T17:53:45.374Z,2.65
2017-11-25T17:59:49.677Z,2.56
2017-11-25T18:05:53.965Z,2.45
2017-11-25T18:11:58.293Z,2.41
2017-11-25T18:18:01.813Z,2.47
2017-11-25T18:24:05.381Z,2.46
2017-11-25T18:30:08.896Z,2.35
2017-11-25T18:36:12.432Z,2.24
2017-11-25T18:42:15.993Z,2.10
2017-11-25T18:48:19.533Z,1.97
2017-11-25T18:54:23.086Z,2.00
2017-11-25T19:00:26.648Z,1.81
2017-11-25T19:06:30.178Z,1.94
2017-11-25T19:12:33.698Z,2.13
2017-11-25T19:18:37.241Z,2.35
2017-11-25T19:24:40.779Z,2.62
2017-11-25T19:30:44.333Z,2.82
2017-11-25T19:36:47.871Z,3.05
2017-11-25T19:42:52.157Z,3.15
2017-11-25T19:48:55.699Z,3.27
2017-11-25T19:54:59.244Z,3.37
2017-11-25T20:07:13.260Z,3.55
2017-11-25T20:13:18.325Z,3.59
2017-11-25T20:19:21.917Z,3.65
2017-11-25T20:25:25.475Z,3.77
2017-11-25T20:31:29.790Z,3.78
2017-11-25T20:37:34.176Z,3.83
2017-11-25T20:43:37.723Z,3.78
2017-11-25T20:49:41.284Z,3.64
2017-11-25T20:55:48.085Z,3.56
2017-11-25T21:01:52.345Z,3.53
2017-11-25T21:07:55.902Z,3.50
2017-11-25T21:14:00.229Z,3.45
2017-11-25T21:20:03.779Z,3.42
2017-11-25T21:26:07.305Z,3.29
2017-11-25T21:32:10.860Z,3.39
2017-11-25T21:38:15.173Z,3.53
2017-11-25T21:44:19.479Z,3.64
2017-11-25T21:50:23.813Z,3.67
2017-11-25T21:56:27.348Z,3.75
2017-11-25T22:02:30.925Z,3.85
2017-11-25T22:08:34.455Z,3.86
2017-11-25T22:14:38.019Z,3.86
2017-11-25T22:20:42.340Z,4.62
2017-11-25T22:26:45.886Z,4.03
2017-11-25T22:32:49.416Z,3.94
2017-11-25T22:38:52.936Z,3.78
2017-11-25T22:44:56.477Z,3.76
2017-11-25T22:51:00.059Z,3.87
2017-11-25T22:57:04.356Z,3.83
2017-11-25T23:03:08.634Z,3.89
2017-11-25T23:09:12.173Z,3.89
2017-11-25T23:15:15.762Z,3.88
2017-11-25T23:21:19.333Z,3.86
2017-11-25T23:27:22.901Z,3.77
2017-11-25T23:33:27.202Z,3.77
2017-11-25T23:39:31.493Z,3.73
2017-11-25T23:45:35.012Z,3.65
2017-11-25T23:51:38.553Z,3.42
2017-11-25T23:57:42.110Z,3.33
